Time;durP1;ratioP1;P1;durP2;ratioP2;P2;SDS_P1;SDS_P2;PMS_P1;PMS_P2;Temp;Humidity;BMP_temperature;BMP_pressure;BME280_temperature;BME280_humidity;BME280_pressure;Samples;Min_cycle;Max_cycle;Signal;HPM_P1;HPM_P2
2023/01/02 00:00:54;;;;;;;2.30;1.77;;;;;;;10.84;100.00;100255.88;5029118;28;20454;-51
2023/01/02 00:03:21;;;;;;;7.60;1.30;;;;;;;10.91;100.00;100249.44;5024403;28;20448;-51
2023/01/02 00:05:48;;;;;;;1.30;1.20;;;;;;;10.74;100.00;100245.56;5022292;28;20459;-52
2023/01/02 00:08:15;;;;;;;5.10;1.70;;;;;;;10.60;100.00;100246.84;5035605;28;20452;-52
2023/01/02 00:10:43;;;;;;;1.50;1.40;;;;;;;10.64;100.00;100244.94;5022742;28;20472;-51
2023/01/02 00:13:09;;;;;;;11.23;1.83;;;;;;;10.80;100.00;100248.88;5027015;28;20456;-50
2023/01/02 00:15:36;;;;;;;2.57;2.30;;;;;;;10.87;100.00;100244.28;5029028;28;20494;-50
2023/01/02 00:18:02;;;;;;;4.20;1.20;;;;;;;10.85;100.00;100233.69;5025042;28;20447;-51
2023/01/02 00:20:29;;;;;;;3.90;1.27;;;;;;;11.09;100.00;100229.38;5022690;28;20468;-50
2023/01/02 00:22:56;;;;;;;1.40;1.17;;;;;;;10.93;100.00;100228.97;5026024;28;20547;-50
2023/01/02 00:25:22;;;;;;;7.10;2.00;;;;;;;11.24;100.00;100234.22;5028535;28;20445;-50
2023/01/02 00:27:49;;;;;;;2.90;1.63;;;;;;;11.06;100.00;100231.25;5024801;28;20811;-51
2023/01/02 00:30:15;;;;;;;0.70;0.70;;;;;;;11.00;100.00;100227.00;5021653;28;20471;-51
2023/01/02 00:32:42;;;;;;;1.30;0.80;;;;;;;10.67;100.00;100204.97;5025142;28;20480;-52
2023/01/02 00:35:08;;;;;;;1.23;1.10;;;;;;;11.37;100.00;100212.50;5028472;28;20455;-52
2023/01/02 00:37:35;;;;;;;3.97;0.80;;;;;;;11.61;100.00;100217.03;5025389;28;20529;-51
2023/01/02 00:40:01;;;;;;;2.50;1.40;;;;;;;11.62;100.00;100207.25;5030450;28;20476;-51
2023/01/02 00:42:28;;;;;;;0.73;0.70;;;;;;;11.38;100.00;100209.81;5025272;28;20483;-52
2023/01/02 00:44:54;;;;;;;1.40;1.30;;;;;;;11.59;100.00;100208.22;5027741;28;20458;-52
2023/01/02 00:47:20;;;;;;;0.87;0.80;;;;;;;11.35;100.00;100215.22;5044156;28;20448;-53
2023/01/02 00:49:47;;;;;;;0.93;0.90;;;;;;;11.33;100.00;100208.22;5030819;28;20469;-51
2023/01/02 00:52:13;;;;;;;0.90;0.90;;;;;;;11.10;100.00;100214.28;5003378;28;20480;-52
2023/01/02 00:54:40;;;;;;;7.40;1.43;;;;;;;11.04;100.00;100204.72;5027517;28;20965;-52
2023/01/02 00:57:06;;;;;;;5.53;2.27;;;;;;;10.97;100.00;100209.38;5024505;28;20559;-51
2023/01/02 00:59:33;;;;;;;3.90;2.43;;;;;;;10.93;100.00;100199.72;5020763;28;20467;-51
2023/01/02 01:01:59;;;;;;;4.80;3.70;;;;;;;10.56;100.00;100210.63;5023951;28;20460;-51
2023/01/02 01:04:26;;;;;;;13.17;3.13;;;;;;;10.34;100.00;100201.53;5028145;28;20516;-51
2023/01/02 01:06:52;;;;;;;3.93;3.10;;;;;;;10.30;100.00;100198.13;5024511;28;20451;-51
2023/01/02 01:09:19;;;;;;;3.40;3.10;;;;;;;10.30;100.00;100198.13;5030264;28;20848;-52
2023/01/02 01:11:45;;;;;;;7.90;4.10;;;;;;;10.37;100.00;100202.31;5024287;28;20454;-52
2023/01/02 01:14:12;;;;;;;4.63;3.70;;;;;;;10.25;100.00;100202.66;5020503;28;20462;-52
2023/01/02 01:16:38;;;;;;;4.13;3.93;;;;;;;10.28;100.00;100201.72;5006277;28;20503;-52
2023/01/02 01:19:05;;;;;;;4.63;4.00;;;;;;;10.26;100.00;100203.53;5030865;28;20502;-52
2023/01/02 01:21:32;;;;;;;2.97;2.77;;;;;;;10.29;100.00;100200.81;5023669;28;20452;-50
2023/01/02 01:23:58;;;;;;;9.67;5.17;;;;;;;10.31;100.00;100215.78;5027158;28;20479;-52
2023/01/02 01:26:25;;;;;;;2.93;2.73;;;;;;;10.28;100.00;100210.56;5024586;28;20539;-52
2023/01/02 01:28:52;;;;;;;13.80;4.63;;;;;;;10.25;100.00;100207.97;5020108;28;20468;-52
2023/01/02 01:31:20;;;;;;;8.43;4.43;;;;;;;10.12;100.00;100193.28;5022256;28;20827;-52
2023/01/02 01:33:47;;;;;;;5.50;3.30;;;;;;;9.92;100.00;100204.47;5027336;28;20448;-53
2023/01/02 01:36:19;;;;;;;4.07;3.70;;;;;;;9.82;100.00;100199.44;5025205;28;20479;-52
2023/01/02 01:38:46;;;;;;;4.03;3.73;;;;;;;9.79;100.00;100203.06;5032541;28;20859;-52
2023/01/02 01:41:16;;;;;;;3.20;2.90;;;;;;;9.77;100.00;100208.41;5032546;28;20448;-52
2023/01/02 01:43:52;;;;;;;7.50;3.00;;;;;;;9.72;100.00;100204.13;5020464;28;20458;-52
2023/01/02 01:46:40;;;;;;;7.13;1.90;;;;;;;9.64;100.00;100214.94;5046544;28;20446;-51
2023/01/02 01:49:24;;;;;;;8.60;5.17;;;;;;;9.80;100.00;100215.41;5021436;28;20472;-51
2023/01/02 01:52:00;;;;;;;5.80;4.03;;;;;;;9.70;100.00;100205.94;5019995;28;20452;-52
2023/01/02 01:54:32;;;;;;;4.03;3.73;;;;;;;9.62;100.00;100211.47;5026688;28;20443;-52
2023/01/02 01:57:03;;;;;;;2.70;1.40;;;;;;;9.44;100.00;100206.59;5022997;28;20492;-52
2023/01/02 01:59:31;;;;;;;3.40;3.10;;;;;;;9.47;100.00;100206.56;5019466;28;20464;-52
2023/01/02 02:01:58;;;;;;;12.23;5.20;;;;;;;9.47;100.00;100203.91;5022355;28;20834;-51
2023/01/02 02:04:25;;;;;;;2.60;1.97;;;;;;;9.27;100.00;100193.78;5026492;28;20456;-52
2023/01/02 02:06:53;;;;;;;5.93;3.80;;;;;;;9.19;100.00;100198.41;5024638;28;20972;-52
2023/01/02 02:09:31;;;;;;;2.83;2.73;;;;;;;9.33;100.00;100198.06;5010639;28;20472;-52
2023/01/02 02:11:58;;;;;;;2.70;2.50;;;;;;;9.26;100.00;100192.03;5026258;28;20454;-51
2023/01/02 02:14:24;;;;;;;2.23;2.03;;;;;;;9.14;100.00;100208.25;5026414;28;20457;-52
2023/01/02 02:17:05;;;;;;;3.90;2.20;;;;;;;9.16;100.00;100199.34;5025973;28;20495;-52
2023/01/02 02:20:25;;;;;;;3.30;2.50;;;;;;;9.02;100.00;100197.94;5021769;28;20504;-52
2023/01/02 02:23:08;;;;;;;2.23;2.03;;;;;;;8.98;100.00;100189.19;4961462;28;20548;-52
2023/01/02 02:26:04;;;;;;;2.97;2.80;;;;;;;9.01;100.00;100188.22;5027263;28;20452;-53
2023/01/02 02:29:00;;;;;;;3.17;1.73;;;;;;;8.87;100.00;100188.56;5019255;28;20540;-53
2023/01/02 02:31:40;;;;;;;3.27;1.73;;;;;;;8.82;100.00;100171.91;5019053;28;20499;-52
2023/01/02 02:34:22;;;;;;;40.67;3.13;;;;;;;9.01;100.00;100169.69;5023905;28;20818;-52
2023/01/02 02:37:10;;;;;;;5.93;1.70;;;;;;;9.03;100.00;100179.31;5028621;28;20492;-52
2023/01/02 02:39:37;;;;;;;4.20;3.37;;;;;;;8.99;100.00;100179.44;5031660;28;20493;-52
2023/01/02 02:42:30;;;;;;;3.90;2.30;;;;;;;8.85;100.00;100175.34;5012601;28;20827;-52
2023/01/02 02:45:20;;;;;;;4.07;3.77;;;;;;;8.86;100.00;100182.38;5030271;28;20528;-52
2023/01/02 02:48:01;;;;;;;8.23;2.03;;;;;;;8.81;100.00;100172.81;5031516;28;20451;-52
2023/01/02 02:50:50;;;;;;;1.93;1.83;;;;;;;9.07;100.00;100170.41;5022144;28;20466;-52
2023/01/02 02:53:28;;;;;;;6.73;2.80;;;;;;;8.80;100.00;100171.06;5019143;28;20532;-52
2023/01/02 02:55:58;;;;;;;1.33;1.20;;;;;;;8.96;100.00;100168.94;5025988;28;20868;-53
2023/01/02 02:58:27;;;;;;;5.30;2.20;;;;;;;8.95;100.00;100176.00;5020571;28;20448;-52
2023/01/02 03:01:03;;;;;;;2.00;1.80;;;;;;;8.92;100.00;100172.56;5017015;28;20497;-52
2023/01/02 03:03:29;;;;;;;3.87;3.60;;;;;;;8.97;100.00;100174.19;5023181;28;21051;-52
2023/01/02 03:06:05;;;;;;;3.07;2.87;;;;;;;8.92;100.00;100165.50;5018868;28;20510;-51
2023/01/02 03:08:55;;;;;;;3.40;2.50;;;;;;;8.78;100.00;100159.63;5032066;28;20477;-51
2023/01/02 03:11:30;;;;;;;10.43;4.23;;;;;;;8.87;100.00;100162.91;5023448;28;20454;-52
2023/01/02 03:14:05;;;;;;;40.77;3.60;;;;;;;8.58;100.00;100168.91;5025456;28;20454;-51
2023/01/02 03:16:38;;;;;;;4.10;2.77;;;;;;;8.50;100.00;100154.97;5023614;28;20487;-53
2023/01/02 03:19:09;;;;;;;6.70;2.83;;;;;;;8.47;100.00;100157.66;5018484;28;20474;-51
2023/01/02 03:21:45;;;;;;;30.33;3.63;;;;;;;8.49;100.00;100169.09;5019322;28;20880;-52
2023/01/02 03:24:16;;;;;;;3.50;2.30;;;;;;;8.52;100.00;100163.75;5019961;28;20454;-52
2023/01/02 03:26:48;;;;;;;6.03;2.33;;;;;;;8.60;100.00;100169.72;5019126;28;20448;-51
2023/01/02 03:29:23;;;;;;;3.57;2.60;;;;;;;8.49;100.00;100168.22;5022648;28;20476;-51
2023/01/02 03:31:54;;;;;;;7.73;2.23;;;;;;;8.49;100.00;100168.22;5025202;28;20995;-52
2023/01/02 03:34:26;;;;;;;2.30;2.20;;;;;;;8.84;100.00;100184.19;5023479;28;20954;-52
2023/01/02 03:36:56;;;;;;;10.03;5.50;;;;;;;8.54;100.00;100188.44;5018395;28;20505;-53
2023/01/02 03:39:27;;;;;;;2.57;2.37;;;;;;;8.68;100.00;100184.59;5031920;28;20475;-52
2023/01/02 03:42:06;;;;;;;2.40;1.50;;;;;;;8.54;100.00;100179.59;5025010;28;20445;-52
2023/01/02 03:44:56;;;;;;;4.40;2.87;;;;;;;8.31;100.00;100178.28;5027022;28;20444;-51
2023/01/02 03:47:37;;;;;;;3.03;2.60;;;;;;;8.67;100.00;100178.44;5031955;28;20452;-51
2023/01/02 03:50:12;;;;;;;1.60;1.50;;;;;;;8.43;100.00;100174.53;5025274;28;20468;-52
2023/01/02 03:52:39;;;;;;;4.23;1.50;;;;;;;8.43;100.00;100181.63;5019159;28;20535;-52
2023/01/02 03:55:06;;;;;;;1.63;1.43;;;;;;;8.49;100.00;100173.50;5024427;28;20528;-52
2023/01/02 03:57:41;;;;;;;3.30;3.00;;;;;;;8.55;100.00;100178.69;5025089;28;20523;-51
2023/01/02 04:00:16;;;;;;;4.07;2.50;;;;;;;8.35;100.00;100173.81;5020743;28;20871;-52
2023/01/02 04:03:03;;;;;;;1.80;1.70;;;;;;;8.58;100.00;100171.53;5018105;28;20443;-51
2023/01/02 04:05:39;;;;;;;4.20;2.90;;;;;;;8.49;100.00;100184.13;5022950;28;20452;-52
2023/01/02 04:08:29;;;;;;;3.47;2.10;;;;;;;8.48;100.00;100185.88;5028301;28;20449;-51
2023/01/02 04:10:57;;;;;;;2.60;2.40;;;;;;;8.44;100.00;100186.88;5021651;28;20452;-51
2023/01/02 04:13:31;;;;;;;3.97;2.30;;;;;;;8.30;100.00;100183.63;5024192;28;20825;-52
2023/01/02 04:15:58;;;;;;;8.23;2.67;;;;;;;8.15;100.00;100176.88;5028534;28;20449;-51
2023/01/02 04:18:30;;;;;;;2.63;2.43;;;;;;;8.25;100.00;100177.56;5026862;28;21056;-52
2023/01/02 04:21:04;;;;;;;2.70;2.50;;;;;;;8.61;100.00;100192.66;5021586;28;20463;-51
2023/01/02 04:23:35;;;;;;;2.03;1.93;;;;;;;8.22;100.00;100189.09;5021156;28;20452;-51
2023/01/02 04:26:14;;;;;;;3.07;2.47;;;;;;;8.36;100.00;100202.06;5022689;28;20470;-51
2023/01/02 04:28:40;;;;;;;9.20;2.00;;;;;;;8.40;100.00;100197.56;5021367;28;20458;-52
2023/01/02 04:31:26;;;;;;;11.53;2.73;;;;;;;8.80;100.00;100208.16;5025230;28;20764;-52
2023/01/02 04:33:57;;;;;;;3.77;2.23;;;;;;;8.76;100.00;100207.34;5028163;28;20471;-52
2023/01/02 04:36:24;;;;;;;15.73;2.13;;;;;;;8.58;100.00;100200.69;5027969;28;20452;-51
2023/01/02 04:38:50;;;;;;;5.63;4.70;;;;;;;8.56;100.00;100210.44;5033756;28;20894;-52
2023/01/02 04:41:30;;;;;;;5.77;3.53;;;;;;;8.35;100.00;100194.13;5021222;28;20467;-51
2023/01/02 04:43:57;;;;;;;4.63;2.27;;;;;;;8.40;100.00;100203.75;5026052;28;20445;-52
2023/01/02 04:46:25;;;;;;;2.03;1.93;;;;;;;8.33;100.00;100204.72;5047078;28;20446;-51
2023/01/02 04:48:53;;;;;;;2.47;2.37;;;;;;;8.29;100.00;100200.41;5024553;28;20476;-51
2023/01/02 04:51:20;;;;;;;2.80;1.97;;;;;;;8.28;100.00;100202.19;5027810;28;21001;-52
2023/01/02 04:53:48;;;;;;;8.03;1.60;;;;;;;8.28;100.00;100199.53;5021040;28;20475;-51
2023/01/02 04:56:14;;;;;;;2.20;2.00;;;;;;;8.33;100.00;100200.31;5027728;28;20853;-52
2023/01/02 04:58:43;;;;;;;3.03;1.73;;;;;;;8.25;100.00;100210.19;5007057;28;20501;-52
2023/01/02 05:01:11;;;;;;;4.70;3.10;;;;;;;8.16;100.00;100210.38;5020683;28;20937;-52
2023/01/02 05:03:44;;;;;;;2.93;2.40;;;;;;;8.20;100.00;100211.19;5023507;28;20534;-52
2023/01/02 05:06:10;;;;;;;5.77;2.00;;;;;;;8.32;100.00;100203.84;5027485;28;20448;-52
2023/01/02 05:08:38;;;;;;;4.00;3.27;;;;;;;8.21;100.00;100207.63;5031547;28;20459;-53
2023/01/02 05:11:17;;;;;;;13.97;3.03;;;;;;;8.29;100.00;100205.72;5014974;28;20463;-53
2023/01/02 05:13:44;;;;;;;5.00;1.73;;;;;;;8.21;100.00;100215.56;5027212;28;20955;-51
2023/01/02 05:16:11;;;;;;;1.67;1.57;;;;;;;8.30;100.00;100218.03;5020378;28;20447;-52
2023/01/02 05:18:37;;;;;;;1.30;1.23;;;;;;;8.17;100.00;100221.84;5020198;28;20523;-52
2023/01/02 05:23:47;;;;;;;7.10;2.30;;;;;;;8.18;100.00;100219.16;5026088;28;20453;-53
2023/01/02 05:23:54;;;;;;;1.77;1.53;;;;;;;8.23;100.00;100232.31;5027146;28;20456;-51
2023/01/02 05:26:20;;;;;;;1.40;1.30;;;;;;;8.80;100.00;100226.72;5025006;28;20444;-51
2023/01/02 05:28:47;;;;;;;2.43;1.40;;;;;;;8.40;100.00;100232.00;5020356;28;20463;-53
2023/01/02 05:31:13;;;;;;;2.17;1.80;;;;;;;8.10;100.00;100231.69;5022018;28;20455;-52
2023/01/02 05:33:40;;;;;;;2.30;2.17;;;;;;;7.82;100.00;100220.75;5027030;28;20457;-53
2023/01/02 05:36:07;;;;;;;4.27;3.23;;;;;;;7.79;100.00;100215.50;5025850;28;20462;-49
2023/01/02 05:38:35;;;;;;;2.53;2.37;;;;;;;7.80;100.00;100227.81;5031634;28;20499;-49
2023/01/02 05:41:03;;;;;;;1.63;1.53;;;;;;;7.69;100.00;100221.88;5021421;28;20448;-49
2023/01/02 05:43:31;;;;;;;2.93;2.73;;;;;;;7.85;100.00;100230.41;5027165;28;20515;-48
2023/01/02 05:45:58;;;;;;;2.47;2.27;;;;;;;7.92;100.00;100226.72;5041797;28;20447;-50
2023/01/02 05:48:24;;;;;;;2.60;1.63;;;;;;;7.90;100.00;100226.75;5027668;28;20476;-48
2023/01/02 05:50:51;;;;;;;3.27;3.07;;;;;;;7.91;100.00;100230.28;5026032;28;20462;-48
2023/01/02 05:53:18;;;;;;;1.90;1.80;;;;;;;7.77;100.00;100227.00;5019949;28;20463;-49
2023/01/02 05:55:44;;;;;;;11.30;3.03;;;;;;;7.82;100.00;100239.28;5008751;28;20481;-50
2023/01/02 05:58:10;;;;;;;2.77;1.83;;;;;;;8.11;100.00;100245.78;5019961;28;20502;-48
2023/01/02 06:00:37;;;;;;;10.50;3.30;;;;;;;7.95;100.00;100234.63;5020297;28;20477;-49
2023/01/02 06:03:03;;;;;;;3.03;1.60;;;;;;;8.02;100.00;100238.91;5026559;28;20452;-48
2023/01/02 06:05:30;;;;;;;3.10;2.90;;;;;;;8.10;100.00;100230.81;5026273;28;20462;-49
2023/01/02 06:07:56;;;;;;;3.07;2.73;;;;;;;7.91;100.00;100238.22;5024719;28;20451;-49
2023/01/02 06:10:22;;;;;;;2.20;2.00;;;;;;;8.23;100.00;100240.25;5019767;28;20472;-49
2023/01/02 06:12:49;;;;;;;1.53;1.43;;;;;;;8.34;100.00;100235.63;5019815;28;20460;-48
2023/01/02 06:15:15;;;;;;;15.43;3.17;;;;;;;8.39;100.00;100236.44;5019477;28;20455;-49
2023/01/02 06:17:41;;;;;;;5.03;2.50;;;;;;;8.47;100.00;100237.13;5025765;28;20994;-48
2023/01/02 06:20:08;;;;;;;6.43;2.40;;;;;;;8.46;100.00;100239.81;5026088;28;20471;-49
2023/01/02 06:22:35;;;;;;;1.83;1.70;;;;;;;8.55;100.00;100247.56;5019550;28;20458;-49
2023/01/02 06:25:01;;;;;;;4.70;2.80;;;;;;;8.65;100.00;100249.13;5019537;28;20528;-48
2023/01/02 06:27:30;;;;;;;2.53;2.33;;;;;;;8.44;100.00;100249.56;5025538;28;20449;-49
2023/01/02 06:29:57;;;;;;;7.77;3.07;;;;;;;8.49;100.00;100250.34;5026001;28;20471;-49
2023/01/02 06:32:23;;;;;;;1.73;1.63;;;;;;;8.44;100.00;100255.75;5019786;28;20452;-49
2023/01/02 06:34:49;;;;;;;3.17;2.97;;;;;;;8.32;100.00;100255.94;5018944;28;20445;-48
2023/01/02 06:37:16;;;;;;;2.03;1.80;;;;;;;8.38;100.00;100255.00;5031489;28;20493;-48
2023/01/02 06:39:42;;;;;;;2.10;2.00;;;;;;;8.30;100.00;100245.38;5031594;28;20861;-48
2023/01/02 06:42:09;;;;;;;3.73;2.23;;;;;;;8.14;100.00;100233.38;5019788;28;20451;-48
2023/01/02 06:44:35;;;;;;;1.63;1.40;;;;;;;8.19;100.00;100242.06;5024004;28;20448;-48
2023/01/02 06:47:01;;;;;;;7.03;3.57;;;;;;;8.23;100.00;100246.44;5044474;28;20451;-48
2023/01/02 06:49:28;;;;;;;13.73;2.60;;;;;;;8.26;100.00;100251.66;5018695;28;20986;-49
2023/01/02 06:51:54;;;;;;;2.70;2.60;;;;;;;8.30;100.00;100265.69;5025731;28;20454;-48
2023/01/02 06:54:21;;;;;;;2.37;0.80;;;;;;;8.35;100.00;100247.97;5018826;28;20453;-48
2023/01/02 06:56:47;;;;;;;4.60;2.90;;;;;;;8.18;100.00;100250.91;5024356;28;20448;-48
2023/01/02 06:59:14;;;;;;;2.17;1.97;;;;;;;8.16;100.00;100249.22;5025422;28;20495;-48
2023/01/02 07:01:40;;;;;;;2.70;2.50;;;;;;;8.11;100.00;100248.44;5020654;28;20518;-48
2023/01/02 07:04:14;;;;;;;2.70;2.60;;;;;;;8.16;100.00;100244.78;5017002;28;20528;-48
2023/01/02 07:06:41;;;;;;;8.73;1.57;;;;;;;8.24;100.00;100244.66;5021764;28;20960;-49
2023/01/02 07:09:07;;;;;;;7.30;2.90;;;;;;;8.24;100.00;100242.00;5028882;28;20468;-48
2023/01/02 07:11:34;;;;;;;2.87;2.17;;;;;;;8.36;100.00;100241.81;5021902;28;20447;-48
2023/01/02 07:14:01;;;;;;;1.60;1.53;;;;;;;8.28;100.00;100231.31;5018794;28;20451;-49
2023/01/02 07:16:27;;;;;;;4.80;3.23;;;;;;;8.52;100.00;100252.94;5022042;28;20804;-49
2023/01/02 07:18:54;;;;;;;5.83;1.60;;;;;;;8.70;100.00;100249.03;5025396;28;20496;-48
2023/01/02 07:21:20;;;;;;;3.07;2.20;;;;;;;8.57;100.00;100246.63;5022151;28;20448;-49
2023/01/02 07:23:47;;;;;;;1.80;1.53;;;;;;;8.64;100.00;100247.38;5018481;28;20822;-49
2023/01/02 07:26:14;;;;;;;11.23;3.83;;;;;;;8.56;100.00;100246.66;5022053;28;20448;-48
2023/01/02 07:28:40;;;;;;;3.70;1.77;;;;;;;8.40;100.00;100246.13;5025541;28;20449;-49
2023/01/02 07:31:11;;;;;;;1.90;1.80;;;;;;;8.47;100.00;100266.25;5022286;28;20458;-48
2023/01/02 07:33:38;;;;;;;4.33;2.83;;;;;;;8.54;100.00;100256.44;5018570;28;20961;-48
2023/01/02 07:36:07;;;;;;;2.33;2.03;;;;;;;8.13;100.00;100247.50;5020983;28;20452;-48
2023/01/02 07:38:34;;;;;;;2.97;2.00;;;;;;;8.16;100.00;100246.56;5026197;28;20841;-49
2023/01/02 07:41:13;;;;;;;4.47;3.10;;;;;;;8.24;100.00;100240.22;5028254;28;20452;-48
2023/01/02 07:43:39;;;;;;;14.10;2.40;;;;;;;8.43;100.00;100251.34;5022627;28;20478;-49
2023/01/02 07:46:06;;;;;;;6.07;2.53;;;;;;;8.71;100.00;100250.75;5048667;28;20439;-49
2023/01/02 07:48:32;;;;;;;5.47;1.90;;;;;;;8.98;100.00;100266.06;5028709;28;20506;-49
2023/01/02 07:51:04;;;;;;;1.53;1.43;;;;;;;9.03;100.00;100256.22;5028885;28;20449;-48
2023/01/02 07:53:31;;;;;;;1.83;1.60;;;;;;;9.13;100.00;100255.09;5022203;28;20447;-48
2023/01/02 07:55:59;;;;;;;3.90;3.60;;;;;;;9.06;100.00;100258.81;5028831;28;20950;-48
2023/01/02 07:58:25;;;;;;;3.40;3.10;;;;;;;8.91;100.00;100267.13;5023383;28;20491;-48
2023/01/02 08:00:53;;;;;;;4.37;3.33;;;;;;;9.07;100.00;100271.16;5022103;28;20456;-49
2023/01/02 08:03:26;;;;;;;8.00;4.83;;;;;;;8.92;100.00;100287.41;5025903;28;20542;-48
2023/01/02 08:05:53;;;;;;;8.83;5.50;;;;;;;8.95;100.00;100297.94;5028749;28;20953;-48
2023/01/02 08:08:19;;;;;;;7.37;6.87;;;;;;;8.96;100.00;100299.69;5030185;28;20444;-48
2023/01/02 08:10:46;;;;;;;3.63;3.43;;;;;;;8.99;100.00;100312.00;5018894;28;20962;-50
2023/01/02 08:13:12;;;;;;;5.60;3.67;;;;;;;9.10;100.00;100315.28;5015508;28;20511;-49
2023/01/02 08:15:38;;;;;;;29.97;6.80;;;;;;;8.98;100.00;100318.22;5028157;28;20969;-50
2023/01/02 08:18:05;;;;;;;14.07;5.57;;;;;;;9.02;100.00;100314.56;5024908;28;20486;-48
2023/01/02 08:20:31;;;;;;;12.53;7.23;;;;;;;8.78;100.00;100323.94;5021140;28;20836;-48
2023/01/02 08:22:58;;;;;;;5.30;3.30;;;;;;;8.71;100.00;100331.13;5024793;28;20479;-49
2023/01/02 08:25:24;;;;;;;7.50;5.53;;;;;;;8.94;100.00;100330.66;5027846;28;20456;-49
2023/01/02 08:27:51;;;;;;;6.67;4.20;;;;;;;8.99;100.00;100342.03;5025108;28;20475;-48
2023/01/02 08:30:17;;;;;;;3.63;3.40;;;;;;;8.94;100.00;100335.09;5021280;28;20981;-49
2023/01/02 08:32:43;;;;;;;6.40;3.60;;;;;;;8.97;100.00;100335.91;5024478;28;20981;-48
2023/01/02 08:35:10;;;;;;;4.03;3.60;;;;;;;8.68;100.00;100338.28;5027954;28;20463;-48
2023/01/02 08:37:36;;;;;;;6.13;4.77;;;;;;;8.96;100.00;100341.22;5024929;28;20543;-48
2023/01/02 08:40:04;;;;;;;13.47;2.90;;;;;;;8.92;100.00;100335.13;5013051;28;20558;-49
2023/01/02 08:42:30;;;;;;;9.57;5.83;;;;;;;9.00;100.00;100334.94;5024958;28;20949;-49
2023/01/02 08:44:56;;;;;;;2.77;2.57;;;;;;;8.74;100.00;100341.66;5029042;28;20443;-49
2023/01/02 08:47:23;;;;;;;3.00;2.07;;;;;;;9.00;100.00;100338.47;5043614;28;20458;-49
2023/01/02 08:49:49;;;;;;;3.57;3.23;;;;;;;8.90;100.00;100342.22;5020820;28;20468;-48
2023/01/02 08:52:15;;;;;;;4.60;2.77;;;;;;;9.05;100.00;100341.91;5027127;28;20890;-48
2023/01/02 08:54:42;;;;;;;5.17;4.77;;;;;;;9.13;100.00;100350.56;5020820;28;20945;-48
2023/01/02 08:57:08;;;;;;;5.03;3.33;;;;;;;9.23;100.00;100348.59;5022742;28;20981;-49
2023/01/02 08:59:35;;;;;;;3.50;3.20;;;;;;;9.23;100.00;100348.59;5027601;28;20496;-48
2023/01/02 09:02:01;;;;;;;1.70;1.60;;;;;;;9.29;100.00;100342.25;5025767;28;20798;-49
2023/01/02 09:04:28;;;;;;;4.03;3.00;;;;;;;9.48;100.00;100339.16;5020913;28;20845;-48
2023/01/02 09:06:54;;;;;;;2.03;1.93;;;;;;;9.53;100.00;100354.97;5025489;28;20896;-49
2023/01/02 09:09:21;;;;;;;1.40;1.30;;;;;;;9.72;100.00;100363.38;5029161;28;20560;-50
2023/01/02 09:11:50;;;;;;;13.23;3.20;;;;;;;9.76;100.00;100351.78;5026051;28;20447;-49
2023/01/02 09:14:19;;;;;;;2.67;2.47;;;;;;;9.99;100.00;100362.69;5020830;28;20444;-48
2023/01/02 09:16:47;;;;;;;4.03;3.03;;;;;;;10.15;100.00;100352.56;5021228;28;20452;-49
2023/01/02 09:19:14;;;;;;;4.83;3.13;;;;;;;10.28;100.00;100362.00;5027074;28;20496;-52
2023/01/02 09:21:40;;;;;;;5.37;3.90;;;;;;;10.39;100.00;100367.00;5026471;28;20451;-48
2023/01/02 09:24:07;;;;;;;2.90;2.67;;;;;;;10.50;100.00;100370.25;5020612;28;20551;-49
2023/01/02 09:26:36;;;;;;;32.20;3.40;;;;;;;10.57;100.00;100374.50;5020859;28;20449;-49
2023/01/02 09:29:03;;;;;;;3.47;2.73;;;;;;;10.65;100.00;100390.22;5020367;28;20474;-47
2023/01/02 09:31:30;;;;;;;5.20;4.80;;;;;;;10.70;100.00;100395.44;5020146;28;20455;-47
2023/01/02 09:33:56;;;;;;;4.40;4.03;;;;;;;10.69;100.00;100389.25;5026532;28;20830;-47
2023/01/02 09:36:23;;;;;;;15.70;4.93;;;;;;;10.96;100.00;100404.44;5026699;28;20452;-47
2023/01/02 09:38:51;;;;;;;6.50;2.10;;;;;;;11.04;100.00;100411.31;5025765;28;20497;-48
2023/01/02 09:41:25;;;;;;;5.40;2.57;;;;;;;11.14;100.00;100411.00;5026967;28;20538;-47
2023/01/02 09:44:03;;;;;;;6.43;3.90;;;;;;;11.48;100.00;100413.53;5021871;28;20482;-48
2023/01/02 09:46:34;;;;;;;2.93;1.53;;;;;;;11.73;100.00;100413.66;5043536;28;20815;-48
2023/01/02 09:49:01;;;;;;;0.50;0.47;;;;;;;11.96;100.00;100410.31;5023071;28;20514;-49
2023/01/02 09:51:29;;;;;;;2.80;0.90;;;;;;;12.09;100.00;100406.31;5027036;28;20551;-47
2023/01/02 09:53:56;;;;;;;7.50;1.47;;;;;;;12.35;100.00;100415.25;5002055;28;20556;-48
2023/01/02 09:56:27;;;;;;;6.03;1.40;;;;;;;12.48;99.93;100435.25;5026582;28;20510;-48
2023/01/02 09:59:16;;;;;;;2.70;1.00;;;;;;;12.67;100.00;100420.34;5025815;28;20501;-47
2023/01/02 10:01:54;;;;;;;0.83;0.83;;;;;;;12.81;100.00;100421.63;5021379;28;20448;-48
2023/01/02 10:04:52;;;;;;;18.83;1.53;;;;;;;12.94;100.00;100431.81;5019518;28;20444;-47
2023/01/02 10:07:21;;;;;;;2.87;1.33;;;;;;;13.06;99.48;100438.50;5024937;28;20448;-49
2023/01/02 10:09:56;;;;;;;6.57;1.57;;;;;;;13.20;99.95;100440.72;5024434;28;21057;-48
2023/01/02 10:12:36;;;;;;;0.80;0.80;;;;;;;13.30;99.49;100439.44;5026324;28;20462;-48
2023/01/02 10:15:09;;;;;;;22.33;1.73;;;;;;;13.33;99.44;100452.69;5024775;28;20448;-48
2023/01/02 10:17:44;;;;;;;0.60;0.60;;;;;;;13.44;99.20;100455.81;5019823;28;20455;-48
2023/01/02 10:20:13;;;;;;;8.03;1.90;;;;;;;13.40;99.17;100461.31;5019460;28;21147;-48
2023/01/02 10:22:51;;;;;;;8.00;0.70;;;;;;;13.42;100.00;100462.13;5024475;28;20455;-48
2023/01/02 10:25:25;;;;;;;3.10;1.40;;;;;;;13.44;100.00;100457.63;5026323;28;20550;-49
2023/01/02 10:28:05;;;;;;;3.10;2.80;;;;;;;13.33;100.00;100474.91;5023213;28;20444;-48
2023/01/02 10:30:39;;;;;;;5.83;1.40;;;;;;;13.32;100.00;100467.81;5019061;28;20913;-48
2023/01/02 10:33:21;;;;;;;9.83;1.60;;;;;;;13.44;100.00;100477.19;5019295;28;20939;-48
2023/01/02 10:35:58;;;;;;;1.60;1.00;;;;;;;13.17;100.00;100479.03;5023621;28;20453;-49
2023/01/02 10:38:33;;;;;;;13.87;1.27;;;;;;;13.24;100.00;100461.88;5029513;28;20517;-49
2023/01/02 10:41:00;;;;;;;0.60;0.60;;;;;;;13.18;100.00;100453.22;5020573;28;20506;-47
2023/01/02 10:43:28;;;;;;;13.23;1.13;;;;;;;13.22;100.00;100460.22;5025877;28;20463;-48
2023/01/02 10:45:54;;;;;;;8.87;1.00;;;;;;;13.13;100.00;100453.34;5039855;28;20944;-49
2023/01/02 10:48:26;;;;;;;12.70;1.57;;;;;;;13.12;100.00;100459.63;5028032;28;20452;-48
2023/01/02 10:50:55;;;;;;;2.07;1.23;;;;;;;13.25;100.00;100455.63;5025454;28;20458;-48
2023/01/02 10:53:31;;;;;;;13.63;1.87;;;;;;;13.24;100.00;100461.88;5012539;28;20460;-47
2023/01/02 10:56:14;;;;;;;0.50;0.40;;;;;;;13.07;100.00;100456.25;5025680;28;20443;-48
2023/01/02 10:58:46;;;;;;;3.63;1.17;;;;;;;13.13;100.00;100456.03;5023059;28;20491;-49
2023/01/02 11:01:18;;;;;;;0.93;0.90;;;;;;;13.12;100.00;100451.63;5014270;28;20460;-48
2023/01/02 11:03:47;;;;;;;3.70;1.40;;;;;;;13.27;100.00;100458.22;5024639;28;20455;-47
2023/01/02 11:06:28;;;;;;;3.60;1.83;;;;;;;13.27;100.00;100460.91;5019223;28;20455;-48
2023/01/02 11:09:29;;;;;;;2.43;1.30;;;;;;;13.25;100.00;100455.63;5025833;28;20502;-48
2023/01/02 11:12:09;;;;;;;3.90;1.13;;;;;;;13.23;100.00;100460.16;5025105;28;20530;-49
2023/01/02 11:14:36;;;;;;;0.70;0.60;;;;;;;13.23;100.00;100454.81;5028505;28;20475;-47
2023/01/02 11:17:22;;;;;;;3.10;1.57;;;;;;;13.32;100.00;100469.63;5029592;28;20497;-48
2023/01/02 11:19:52;;;;;;;1.20;1.10;;;;;;;13.37;100.00;100456.09;5026763;28;21012;-47
2023/01/02 11:22:22;;;;;;;3.23;1.03;;;;;;;13.23;100.00;100449.47;5022621;28;20455;-48
2023/01/02 11:25:01;;;;;;;1.37;0.70;;;;;;;13.22;100.00;100444.19;5024586;28;20453;-53
2023/01/02 11:27:40;;;;;;;2.27;1.70;;;;;;;13.33;100.00;100453.53;5022875;28;20491;-53
2023/01/02 11:30:27;;;;;;;2.77;0.87;;;;;;;13.43;100.00;100461.19;5022587;28;20465;-53
2023/01/02 11:33:18;;;;;;;15.67;2.10;;;;;;;13.43;100.00;100459.44;5024836;28;20444;-53
2023/01/02 11:35:46;;;;;;;3.50;2.70;;;;;;;13.40;100.00;100466.66;5024564;28;20443;-50
2023/01/02 11:38:20;;;;;;;2.90;1.23;;;;;;;13.40;100.00;100463.97;5034818;28;20459;-48